Time;durP1;ratioP1;P1;durP2;ratioP2;P2;SDS_P1;SDS_P2;PMS_P1;PMS_P2;Temp;Humidity;BMP_temperature;BMP_pressure;BME280_temperature;BME280_humidity;BME280_pressure;Samples;Min_cycle;Max_cycle;Signal;HPM_P1;HPM_P2
2021/09/28 00:01:29;;;;;;;5.97;2.65;;;18.80;57.60;;;;;;4166372;28;20601;-58
2021/09/28 00:03:32;;;;;;;4.55;2.17;;;18.80;57.70;;;;;;4165481;28;20044;-58
2021/09/28 00:05:34;;;;;;;8.15;2.40;;;18.90;57.00;;;;;;4167448;28;20086;-57
2021/09/28 00:07:37;;;;;;;5.85;2.22;;;18.90;56.90;;;;;;4165919;28;20055;-58
2021/09/28 00:09:39;;;;;;;3.80;1.92;;;18.90;56.70;;;;;;4162471;28;20166;-59
2021/09/28 00:11:41;;;;;;;5.85;2.00;;;18.90;56.40;;;;;;4162104;28;20062;-59
2021/09/28 00:13:44;;;;;;;4.32;2.10;;;18.90;56.20;;;;;;4156207;28;20124;-58
2021/09/28 00:15:47;;;;;;;7.32;1.98;;;18.90;56.00;;;;;;4149834;28;20063;-59
2021/09/28 00:17:49;;;;;;;4.05;2.30;;;18.90;55.90;;;;;;4150513;28;20048;-60
2021/09/28 00:19:51;;;;;;;4.63;1.92;;;18.90;55.80;;;;;;4157632;28;20078;-58
2021/09/28 00:21:53;;;;;;;5.65;2.10;;;19.00;55.80;;;;;;4153338;28;20144;-58
2021/09/28 00:23:56;;;;;;;3.60;1.90;;;19.00;55.70;;;;;;4157131;28;20048;-58
2021/09/28 00:25:58;;;;;;;4.60;1.65;;;19.00;55.60;;;;;;4156217;28;20094;-59
2021/09/28 00:28:01;;;;;;;6.65;2.20;;;19.00;55.60;;;;;;4153206;28;20048;-58
2021/09/28 00:30:03;;;;;;;3.13;1.73;;;19.00;55.40;;;;;;4153644;28;20067;-55
2021/09/28 00:32:06;;;;;;;3.53;1.73;;;19.00;55.50;;;;;;4154375;28;20059;-59
2021/09/28 00:34:09;;;;;;;7.05;2.10;;;19.10;55.80;;;;;;4157384;28;20051;-62
2021/09/28 00:36:11;;;;;;;7.30;1.67;;;19.10;56.20;;;;;;4142240;28;20183;-59
2021/09/28 00:38:13;;;;;;;4.05;1.88;;;19.10;56.10;;;;;;4173945;22;20057;-77
2021/09/28 01:55:07;;;;;;;3.17;1.30;;;;;;;;;;4098407;22;20406;-59
2021/09/28 01:57:08;;;;;;;;;;;19.40;54.70;;;;;;4113813;28;20049;-53
2021/09/28 01:59:11;;;;;;;2.85;1.63;;;20.40;55.20;;;;;;4126087;28;19928;-55
2021/09/28 02:02:10;;;;;;;4.15;1.70;;;20.40;54.60;;;;;;4163490;27;21003;-55
2021/09/28 02:04:13;;;;;;;4.43;1.80;;;20.50;55.20;;;;;;4148992;28;20048;-58
2021/09/28 02:06:18;;;;;;;4.38;1.73;;;20.50;55.20;;;;;;4158302;28;20051;-58
2021/09/28 02:08:20;;;;;;;3.38;1.80;;;20.50;55.20;;;;;;4143329;28;20060;-57
2021/09/28 02:10:22;;;;;;;5.75;1.75;;;20.50;55.10;;;;;;4157949;28;20048;-58
2021/09/28 02:12:25;;;;;;;3.90;1.98;;;20.60;55.20;;;;;;4143393;28;20060;-61
2021/09/28 02:14:28;;;;;;;2.78;1.63;;;20.60;55.20;;;;;;4162845;28;20083;-53
2021/09/28 02:16:30;;;;;;;5.47;1.98;;;20.60;54.90;;;;;;4158430;28;21060;-57
2021/09/28 02:18:32;;;;;;;2.67;1.52;;;20.70;54.70;;;;;;4148778;28;20181;-56
2021/09/28 02:20:35;;;;;;;3.30;1.70;;;20.70;54.60;;;;;;4156265;28;20048;-56
2021/09/28 02:22:37;;;;;;;3.55;1.58;;;20.70;54.50;;;;;;4161238;28;20044;-57
2021/09/28 02:24:39;;;;;;;3.37;1.70;;;;;;;;;;4162610;28;20055;-57
2021/09/28 02:26:41;;;;;;;3.95;1.42;;;;;;;;;;4160688;28;20731;-56
2021/09/28 02:28:44;;;;;;;3.92;1.92;;;;;;;;;;4145720;28;20848;-55
2021/09/28 02:30:46;;;;;;;1.67;1.23;;;;;;;;;;4159700;28;20044;-56
2021/09/28 02:32:48;;;;;;;2.92;2.00;;;;;;;;;;4141516;28;20059;-58
2021/09/28 02:34:50;;;;;;;3.30;1.40;;;;;;;;;;4162006;28;20040;-58
2021/09/28 02:36:52;;;;;;;4.57;2.03;;;;;;;;;;4144259;28;20651;-59
2021/09/28 02:38:54;;;;;;;3.75;1.85;;;;;;;;;;4149784;28;20039;-57
2021/09/28 02:40:56;;;;;;;3.08;1.45;;;;;;;;;;4161011;28;20804;-56
2021/09/28 02:43:00;;;;;;;2.70;1.40;;;;;;;;;;4157754;28;20072;-57
2021/09/28 02:45:04;;;;;;;3.45;1.67;;;;;;;;;;4159743;28;20048;-58
2021/09/28 02:47:08;;;;;;;2.63;1.60;;;20.70;54.30;;;;;;4161574;28;21563;-54
2021/09/28 02:49:11;;;;;;;3.15;1.67;;;21.10;55.10;;;;;;4159809;28;20100;-58
2021/09/28 02:51:13;;;;;;;3.17;1.63;;;21.10;55.40;;;;;;4159005;28;20063;-55
2021/09/28 02:53:15;;;;;;;2.13;1.48;;;21.10;55.40;;;;;;4157169;28;20153;-56
2021/09/28 02:55:17;;;;;;;3.23;1.60;;;21.10;55.40;;;;;;4159404;28;20066;-51
2021/09/28 02:57:20;;;;;;;3.38;1.40;;;21.20;55.50;;;;;;4157373;28;20050;-58
2021/09/28 02:59:22;;;;;;;2.58;1.42;;;21.20;55.50;;;;;;4161697;28;20139;-55
2021/09/28 03:01:24;;;;;;;3.17;1.58;;;21.20;55.40;;;;;;4160974;28;20063;-55
2021/09/28 03:03:26;;;;;;;4.57;1.58;;;;;;;;;;4161358;28;20052;-55
2021/09/28 03:05:28;;;;;;;2.72;1.45;;;;;;;;;;4161924;28;20075;-55
2021/09/28 03:07:30;;;;;;;4.30;1.67;;;;;;;;;;4157352;28;20451;-52
2021/09/28 03:09:32;;;;;;;4.97;1.80;;;;;;;;;;4161193;28;20051;-59
2021/09/28 03:11:34;;;;;;;3.78;1.30;;;;;;;;;;4160965;28;20048;-58
2021/09/28 03:13:37;;;;;;;3.92;1.50;;;;;;;;;;4151069;28;20051;-56
2021/09/28 03:15:40;;;;;;;3.90;1.60;;;;;;;;;;4150367;28;20063;-58
2021/09/28 03:17:42;;;;;;;4.38;1.50;;;;;;;;;;4153835;28;20051;-55
2021/09/28 03:19:44;;;;;;;7.60;1.75;;;;;;;;;;4152090;28;20063;-56
2021/09/28 03:21:46;;;;;;;4.03;1.25;;;;;;;;;;4147770;28;20094;-58
2021/09/28 03:23:48;;;;;;;3.83;1.70;;;;;;;;;;4145099;28;20059;-63
2021/09/28 03:25:51;;;;;;;7.93;1.73;;;;;;;;;;4149664;28;20758;-64
2021/09/28 03:27:53;;;;;;;15.93;2.13;;;;;;;;;;4151224;28;20083;-65
2021/09/28 03:29:56;;;;;;;7.43;2.00;;;21.30;55.50;;;;;;4157614;28;20479;-64
2021/09/28 03:31:58;;;;;;;6.75;2.10;;;21.70;54.50;;;;;;4150754;28;20530;-66
2021/09/28 03:34:00;;;;;;;3.97;1.40;;;21.70;54.60;;;;;;4154607;28;21825;-66
2021/09/28 03:36:03;;;;;;;6.20;1.45;;;21.70;54.40;;;;;;4154217;28;20899;-66
2021/09/28 03:38:06;;;;;;;5.25;1.55;;;21.80;54.50;;;;;;4154858;28;20746;-65
2021/09/28 03:40:10;;;;;;;4.78;1.60;;;21.80;54.60;;;;;;4153435;28;20530;-65
2021/09/28 03:42:12;;;;;;;8.23;1.55;;;;;;;;;;4156541;28;20089;-65
2021/09/28 03:44:15;;;;;;;6.30;1.60;;;;;;;;;;4157837;28;20040;-66
2021/09/28 03:46:17;;;;;;;;;;;21.80;54.00;;;;;;4154180;28;20075;-65
2021/09/28 03:48:20;;;;;;;6.65;1.85;;;22.00;54.50;;;;;;4154812;28;20324;-66
2021/09/28 03:50:22;;;;;;;3.08;1.55;;;22.00;54.40;;;;;;4149992;28;20067;-65
2021/09/28 03:52:25;;;;;;;4.90;1.60;;;22.10;54.30;;;;;;4147781;28;20162;-66
2021/09/28 03:54:27;;;;;;;4.53;1.33;;;22.10;54.30;;;;;;4150999;28;20053;-64
2021/09/28 03:56:30;;;;;;;3.95;1.40;;;22.20;54.30;;;;;;4154663;28;20082;-65
2021/09/28 03:58:32;;;;;;;3.50;1.25;;;22.20;54.30;;;;;;4146355;28;20079;-65
2021/09/28 04:00:37;;;;;;;2.20;1.50;;;22.30;54.10;;;;;;4147916;28;20110;-66
2021/09/28 04:02:39;;;;;;;5.57;1.60;;;22.40;54.10;;;;;;4147389;28;20053;-65
2021/09/28 04:04:41;;;;;;;2.53;1.55;;;22.40;54.10;;;;;;4147984;28;20071;-65
2021/09/28 04:06:44;;;;;;;4.00;1.85;;;22.50;54.00;;;;;;4149943;28;20048;-64
2021/09/28 04:08:46;;;;;;;2.05;1.17;;;22.50;53.80;;;;;;4149098;28;20052;-65
2021/09/28 04:10:48;;;;;;;2.20;1.20;;;22.60;53.80;;;;;;4152841;28;20135;-65
2021/09/28 04:12:51;;;;;;;3.15;1.40;;;22.60;53.60;;;;;;4149965;28;20487;-68
2021/09/28 04:14:55;;;;;;;4.17;1.40;;;22.70;53.70;;;;;;4148878;28;20056;-65
2021/09/28 04:16:57;;;;;;;2.50;1.40;;;22.70;53.70;;;;;;4148979;28;20316;-66
2021/09/28 04:18:59;;;;;;;3.17;1.23;;;22.70;53.60;;;;;;4146595;28;21242;-66
2021/09/28 04:21:02;;;;;;;3.85;1.80;;;22.70;53.60;;;;;;4149484;28;20167;-65
2021/09/28 04:23:05;;;;;;;2.57;1.60;;;22.80;53.70;;;;;;4147037;28;20060;-68
2021/09/28 04:25:08;;;;;;;2.65;1.33;;;22.80;53.80;;;;;;4150010;28;20060;-66
2021/09/28 04:27:10;;;;;;;3.97;1.43;;;22.80;53.70;;;;;;4148458;28;20044;-66
2021/09/28 04:29:13;;;;;;;2.42;1.30;;;22.80;53.80;;;;;;4150538;28;20328;-66
2021/09/28 04:31:16;;;;;;;3.70;1.35;;;22.80;53.90;;;;;;4149241;28;20044;-66
2021/09/28 04:33:18;;;;;;;5.18;1.45;;;22.80;54.00;;;;;;4145172;28;20702;-67
2021/09/28 04:35:20;;;;;;;4.43;1.60;;;22.90;54.20;;;;;;4149751;28;20048;-67
2021/09/28 04:37:23;;;;;;;2.35;1.27;;;22.80;54.30;;;;;;4146885;28;20067;-66
2021/09/28 04:39:25;;;;;;;3.25;1.33;;;22.90;54.40;;;;;;4145802;28;20135;-64
2021/09/28 04:41:27;;;;;;;4.25;1.30;;;22.80;54.40;;;;;;4147019;28;20063;-63
2021/09/28 04:43:30;;;;;;;4.72;1.60;;;22.90;54.50;;;;;;4146058;28;20522;-65
2021/09/28 04:45:32;;;;;;;4.85;1.50;;;22.90;54.40;;;;;;4142965;28;20138;-67
2021/09/28 04:47:34;;;;;;;5.87;1.47;;;22.90;54.50;;;;;;4151352;28;20783;-64
2021/09/28 04:49:37;;;;;;;3.45;1.30;;;22.90;54.50;;;;;;4145037;28;20097;-63
2021/09/28 04:51:39;;;;;;;3.60;1.80;;;22.90;54.50;;;;;;4144602;28;20052;-63
2021/09/28 04:53:41;;;;;;;3.15;1.77;;;22.90;54.50;;;;;;4150353;28;20052;-65
2021/09/28 04:55:44;;;;;;;4.03;1.77;;;22.90;54.50;;;;;;4148038;28;20048;-62
2021/09/28 04:57:46;;;;;;;2.58;1.40;;;23.00;54.60;;;;;;4144458;28;20434;-64
2021/09/28 04:59:49;;;;;;;1.98;1.38;;;23.00;54.70;;;;;;4144261;28;20048;-65
2021/09/28 05:02:14;;;;;;;2.67;1.63;;;23.00;54.20;;;;;;4142225;27;20403;-67
2021/09/28 05:04:16;;;;;;;3.03;1.15;;;23.00;54.80;;;;;;4120747;28;20045;-68
2021/09/28 05:06:19;;;;;;;2.63;1.50;;;23.00;54.80;;;;;;4127270;28;20052;-63
2021/09/28 05:08:22;;;;;;;2.95;1.45;;;23.00;54.80;;;;;;4128774;28;20053;-63
2021/09/28 05:10:24;;;;;;;4.60;1.85;;;23.00;54.70;;;;;;4127654;28;20734;-63
2021/09/28 05:12:27;;;;;;;5.07;1.70;;;23.00;54.60;;;;;;4143644;28;20135;-62
2021/09/28 05:14:29;;;;;;;5.68;1.98;;;23.00;54.70;;;;;;4123844;28;20397;-63
2021/09/28 05:16:31;;;;;;;2.70;1.30;;;23.00;54.50;;;;;;4126292;28;20063;-61
2021/09/28 05:18:34;;;;;;;2.97;1.30;;;23.00;54.70;;;;;;4124328;28;20049;-62
2021/09/28 05:20:36;;;;;;;6.80;1.25;;;23.00;54.70;;;;;;4126482;28;20059;-63
2021/09/28 05:22:39;;;;;;;3.30;1.50;;;23.00;54.80;;;;;;4127682;28;20580;-64
2021/09/28 05:24:42;;;;;;;2.50;1.40;;;23.20;54.80;;;;;;4128354;28;20103;-63
2021/09/28 05:26:46;;;;;;;3.90;1.60;;;23.20;54.50;;;;;;4126013;28;20049;-64
2021/09/28 05:28:48;;;;;;;3.95;1.92;;;23.20;54.60;;;;;;4124762;28;20139;-63
2021/09/28 05:30:51;;;;;;;4.25;1.77;;;23.20;54.30;;;;;;4107789;28;20156;-66
2021/09/28 05:32:53;;;;;;;3.47;1.52;;;23.20;54.30;;;;;;4125236;28;20053;-67
2021/09/28 05:34:55;;;;;;;2.65;1.80;;;23.20;54.40;;;;;;4121778;28;20761;-70
2021/09/28 05:36:58;;;;;;;5.93;1.80;;;23.20;54.50;;;;;;4123838;28;20141;-69
2021/09/28 05:39:00;;;;;;;3.35;1.27;;;23.20;54.50;;;;;;4119858;28;20060;-70
2021/09/28 05:41:09;;;;;;;3.67;1.40;;;23.20;54.60;;;;;;4123080;28;20944;-67
2021/09/28 05:43:11;;;;;;;4.25;1.65;;;23.20;54.60;;;;;;4119324;28;20143;-62
2021/09/28 05:45:13;;;;;;;4.03;1.63;;;23.20;54.70;;;;;;4121427;28;20170;-63
2021/09/28 05:47:15;;;;;;;5.88;1.98;;;23.20;54.90;;;;;;4121734;28;20055;-68
2021/09/28 05:49:18;;;;;;;4.55;2.00;;;23.20;54.90;;;;;;4124089;28;20060;-67
2021/09/28 05:51:25;;;;;;;4.90;1.73;;;23.20;54.90;;;;;;4126155;28;20060;-70
2021/09/28 05:53:35;;;;;;;2.55;1.70;;;23.20;54.90;;;;;;4125835;28;20059;-69
2021/09/28 05:55:38;;;;;;;5.85;1.98;;;23.20;54.90;;;;;;4128194;28;20132;-69
2021/09/28 05:57:41;;;;;;;8.32;2.22;;;23.20;54.90;;;;;;4127901;28;20056;-72
2021/09/28 05:59:44;;;;;;;5.22;2.33;;;23.20;54.90;;;;;;4115780;28;20412;-67
2021/09/28 06:01:48;;;;;;;6.25;2.70;;;23.20;55.00;;;;;;4122632;28;20056;-67
2021/09/28 06:03:51;;;;;;;4.45;2.22;;;23.20;55.00;;;;;;4127033;28;20049;-64
2021/09/28 06:05:53;;;;;;;4.78;3.00;;;23.20;55.00;;;;;;4130298;28;21448;-66
2021/09/28 06:07:55;;;;;;;4.65;2.97;;;23.20;55.00;;;;;;4123718;28;20167;-68
2021/09/28 06:09:57;;;;;;;4.97;3.72;;;23.20;55.10;;;;;;4128333;28;20052;-68
2021/09/28 06:12:00;;;;;;;4.70;3.90;;;23.20;55.10;;;;;;4123850;28;20551;-68
2021/09/28 06:14:02;;;;;;;6.35;3.80;;;23.20;55.10;;;;;;4112200;28;21124;-67
2021/09/28 06:16:04;;;;;;;7.57;3.92;;;23.30;54.90;;;;;;4114607;28;20057;-68
2021/09/28 06:18:07;;;;;;;4.10;3.72;;;23.30;54.70;;;;;;4114110;28;20049;-62
2021/09/28 06:20:09;;;;;;;6.37;4.00;;;23.30;54.60;;;;;;4118444;28;20144;-65
2021/09/28 06:22:12;;;;;;;4.15;3.75;;;23.20;54.30;;;;;;4110347;28;20060;-68
2021/09/28 06:24:14;;;;;;;4.90;3.42;;;23.30;54.30;;;;;;4119120;28;20391;-70
2021/09/28 06:26:16;;;;;;;3.47;3.17;;;23.30;54.30;;;;;;4113450;28;20056;-67
2021/09/28 06:28:18;;;;;;;4.53;3.40;;;23.30;54.30;;;;;;4115697;28;20098;-66
2021/09/28 06:30:20;;;;;;;3.67;2.85;;;23.30;54.30;;;;;;4116108;28;20906;-64
2021/09/28 06:32:23;;;;;;;3.45;2.92;;;23.30;54.30;;;;;;4117387;28;20049;-71
2021/09/28 06:34:26;;;;;;;4.00;2.75;;;23.30;54.30;;;;;;4114581;28;20087;-67
2021/09/28 06:36:28;;;;;;;3.00;2.70;;;23.30;54.20;;;;;;4115101;28;20143;-67
2021/09/28 06:38:30;;;;;;;4.17;2.33;;;23.30;54.20;;;;;;4116978;28;20060;-67
2021/09/28 06:40:33;;;;;;;7.63;3.10;;;23.30;54.10;;;;;;4113752;28;20044;-69
2021/09/28 06:42:35;;;;;;;3.50;2.50;;;23.30;54.70;;;;;;4115876;28;20419;-70
2021/09/28 06:44:37;;;;;;;2.78;2.10;;;23.40;54.10;;;;;;4114835;28;20049;-68
2021/09/28 06:46:39;;;;;;;2.40;2.20;;;23.40;54.10;;;;;;4115344;28;20078;-71
2021/09/28 06:48:41;;;;;;;3.15;2.30;;;23.40;54.30;;;;;;4117100;28;20052;-70
2021/09/28 06:50:44;;;;;;;3.38;2.53;;;23.40;54.30;;;;;;4113186;28;20049;-70
2021/09/28 06:52:46;;;;;;;4.03;2.97;;;23.40;54.50;;;;;;4116420;28;20048;-69
2021/09/28 06:54:48;;;;;;;2.92;2.47;;;23.40;54.10;;;;;;4110571;28;21058;-68
2021/09/28 06:56:50;;;;;;;4.63;2.50;;;23.50;54.20;;;;;;4113083;28;20701;-69
2021/09/28 06:58:52;;;;;;;3.55;2.42;;;23.50;53.80;;;;;;4110907;28;20134;-68
2021/09/28 07:00:55;;;;;;;3.70;2.60;;;23.50;53.70;;;;;;4109196;28;20607;-70
2021/09/28 07:02:57;;;;;;;4.35;2.63;;;23.60;53.70;;;;;;4110683;28;20059;-69
2021/09/28 07:04:59;;;;;;;3.17;2.70;;;23.60;53.30;;;;;;4110634;28;20083;-69
2021/09/28 07:07:02;;;;;;;2.80;2.60;;;23.60;53.30;;;;;;4107676;28;20725;-70
2021/09/28 07:09:04;;;;;;;3.77;2.60;;;23.70;53.10;;;;;;4114357;28;20068;-69
2021/09/28 07:11:06;;;;;;;4.13;2.72;;;23.70;53.00;;;;;;4112348;28;20057;-68
2021/09/28 07:13:09;;;;;;;5.70;2.78;;;23.70;52.90;;;;;;4117273;28;22179;-71
2021/09/28 07:15:11;;;;;;;2.83;2.63;;;23.70;52.80;;;;;;4108369;28;20863;-67
2021/09/28 07:17:14;;;;;;;4.15;2.63;;;23.70;53.30;;;;;;4108003;28;20339;-67
2021/09/28 07:19:16;;;;;;;5.38;2.78;;;23.70;53.00;;;;;;4108385;28;21789;-68
2021/09/28 07:21:18;;;;;;;3.97;2.80;;;23.70;53.00;;;;;;4110929;28;20063;-68
2021/09/28 07:23:23;;;;;;;4.87;2.87;;;23.70;53.00;;;;;;4106919;28;20913;-67
2021/09/28 07:25:25;;;;;;;3.72;2.90;;;23.70;53.00;;;;;;4101929;28;20139;-68
2021/09/28 07:27:28;;;;;;;3.30;2.50;;;23.60;53.00;;;;;;4111836;28;20045;-66
2021/09/28 07:29:30;;;;;;;5.22;2.70;;;23.60;53.00;;;;;;4104935;28;20178;-66
2021/09/28 07:31:32;;;;;;;3.43;2.57;;;23.60;53.40;;;;;;4107855;28;20045;-66
2021/09/28 07:33:35;;;;;;;3.35;2.60;;;23.60;53.00;;;;;;4106458;28;21057;-67
2021/09/28 07:35:42;;;;;;;3.67;2.50;;;23.60;53.00;;;;;;4106199;28;20044;-68
2021/09/28 07:37:44;;;;;;;3.75;2.53;;;23.60;52.90;;;;;;4105444;28;20053;-67
2021/09/28 07:39:46;;;;;;;3.05;2.30;;;23.50;52.90;;;;;;4104110;28;20175;-67
2021/09/28 07:41:49;;;;;;;3.38;2.65;;;23.50;52.90;;;;;;4113534;28;20924;-68
2021/09/28 07:43:51;;;;;;;3.77;2.57;;;23.50;53.00;;;;;;4113764;28;20049;-68
2021/09/28 07:45:57;;;;;;;3.63;2.73;;;23.50;52.90;;;;;;4112231;28;20393;-67
2021/09/28 07:47:59;;;;;;;3.10;2.60;;;23.50;52.90;;;;;;4109048;28;20076;-68
2021/09/28 07:50:03;;;;;;;5.97;2.78;;;23.50;52.90;;;;;;4111817;28;20068;-66
2021/09/28 07:52:05;;;;;;;3.83;2.35;;;23.50;53.00;;;;;;4108686;28;20118;-67
2021/09/28 07:54:08;;;;;;;3.50;2.20;;;23.50;52.90;;;;;;4111089;28;20184;-66
2021/09/28 07:56:10;;;;;;;4.70;2.30;;;23.40;52.90;;;;;;4112120;28;20064;-67
2021/09/28 07:58:12;;;;;;;4.23;2.60;;;23.40;52.90;;;;;;4112365;28;20049;-66
2021/09/28 08:02:17;;;;;;;4.50;2.65;;;23.40;52.80;;;;;;4117911;27;20453;-65
2021/09/28 08:04:20;;;;;;;3.95;2.40;;;23.30;53.70;;;;;;4129669;28;20486;-67
2021/09/28 08:06:23;;;;;;;3.78;2.60;;;23.30;53.90;;;;;;4109009;28;20047;-64
2021/09/28 08:08:25;;;;;;;5.95;2.47;;;23.40;54.10;;;;;;4111649;28;20080;-65
2021/09/28 08:10:27;;;;;;;5.50;2.50;;;23.40;54.30;;;;;;4111792;28;20057;-62
2021/09/28 08:12:30;;;;;;;4.15;2.60;;;23.40;55.10;;;;;;4112689;28;20050;-65
2021/09/28 08:14:33;;;;;;;6.03;2.47;;;23.30;54.60;;;;;;4115780;28;20060;-67
2021/09/28 08:16:35;;;;;;;5.30;2.20;;;23.30;54.60;;;;;;4109633;28;21110;-66
2021/09/28 08:18:37;;;;;;;5.30;2.53;;;23.30;54.70;;;;;;4118411;28;20069;-65
2021/09/28 08:20:42;;;;;;;4.07;2.53;;;23.30;54.80;;;;;;4110690;28;20080;-69
2021/09/28 08:22:45;;;;;;;3.92;2.10;;;23.30;54.90;;;;;;4109683;28;20053;-68
2021/09/28 08:24:51;;;;;;;7.22;2.58;;;23.30;54.80;;;;;;4106302;28;21188;-68
2021/09/28 08:29:15;;;;;;;7.82;2.10;;;23.30;55.00;;;;;;4109889;28;20057;-67
2021/09/28 08:31:18;;;;;;;3.38;2.35;;;23.30;55.10;;;;;;4106933;28;20168;-63
2021/09/28 08:33:20;;;;;;;5.18;2.45;;;23.30;55.00;;;;;;4117440;28;20787;-66
2021/09/28 08:35:22;;;;;;;4.82;2.10;;;23.30;55.00;;;;;;4111320;28;20148;-64
2021/09/28 08:37:26;;;;;;;3.65;2.33;;;23.30;55.00;;;;;;4107270;28;20049;-63
2021/09/28 08:39:29;;;;;;;4.97;2.40;;;23.30;55.00;;;;;;4107181;28;20053;-66
2021/09/28 08:41:31;;;;;;;4.78;2.30;;;23.30;55.10;;;;;;4111343;28;20049;-69
2021/09/28 08:43:34;;;;;;;5.43;2.50;;;23.30;55.10;;;;;;4112895;28;20144;-70
2021/09/28 08:45:36;;;;;;;4.35;2.17;;;23.30;55.20;;;;;;4109207;28;20349;-65
2021/09/28 08:47:44;;;;;;;4.68;2.30;;;23.30;55.20;;;;;;4113999;28;20248;-64
2021/09/28 08:49:46;;;;;;;5.80;2.40;;;23.30;55.20;;;;;;4110753;28;20563;-68
2021/09/28 08:51:50;;;;;;;4.93;2.20;;;23.30;55.30;;;;;;4111604;28;20064;-66
2021/09/28 08:53:52;;;;;;;2.70;1.90;;;23.30;55.30;;;;;;4110074;28;22319;-66
2021/09/28 08:55:54;;;;;;;5.80;2.33;;;23.30;55.30;;;;;;4107311;28;20041;-71
2021/09/28 08:58:19;;;;;;;3.78;2.05;;;23.30;55.30;;;;;;4106495;28;20045;-66
2021/09/28 09:00:24;;;;;;;5.05;2.10;;;23.30;55.40;;;;;;4105660;28;21747;-66
2021/09/28 09:02:47;;;;;;;4.30;2.05;;;23.30;55.30;;;;;;4105386;28;20139;-62
2021/09/28 09:05:16;;;;;;;4.87;2.20;;;23.30;55.40;;;;;;4105937;28;20052;-68
2021/09/28 09:07:28;;;;;;;3.58;2.00;;;23.30;55.40;;;;;;4106900;28;20396;-67
2021/09/28 09:09:30;;;;;;;5.10;2.00;;;23.30;55.40;;;;;;4107878;28;20051;-68
2021/09/28 09:11:40;;;;;;;6.75;2.20;;;23.30;55.40;;;;;;4109484;28;20053;-67
2021/09/28 09:13:50;;;;;;;5.55;2.10;;;23.30;55.40;;;;;;4098404;28;20049;-67
2021/09/28 09:15:57;;;;;;;4.00;1.95;;;23.30;55.50;;;;;;4095370;28;20054;-68
2021/09/28 09:18:09;;;;;;;5.85;2.20;;;23.30;55.80;;;;;;4092732;28;20463;-69
2021/09/28 09:20:47;;;;;;;5.05;2.25;;;23.30;55.50;;;;;;4093812;28;20049;-69
2021/09/28 09:22:49;;;;;;;5.22;2.35;;;23.30;55.50;;;;;;4057226;28;20517;-69
2021/09/28 09:24:54;;;;;;;5.10;1.92;;;23.30;55.50;;;;;;4082569;28;20450;-69
2021/09/28 09:26:56;;;;;;;3.30;1.92;;;23.30;55.50;;;;;;4095657;28;20041;-68
2021/09/28 09:29:00;;;;;;;9.77;2.53;;;23.30;55.60;;;;;;4091447;28;20274;-68
2021/09/28 09:31:14;;;;;;;3.95;1.98;;;23.30;55.60;;;;;;4095638;28;20041;-67
2021/09/28 09:33:24;;;;;;;2.85;1.70;;;23.30;55.60;;;;;;4095255;28;20099;-70
2021/09/28 09:35:28;;;;;;;4.22;1.92;;;23.30;56.20;;;;;;4098168;28;20041;-66
2021/09/28 09:37:37;;;;;;;;;;;23.30;55.60;;;;;;4097242;28;20050;-68
2021/09/28 09:39:49;;;;;;;4.13;1.90;;;23.30;55.60;;;;;;4093300;28;20549;-67
2021/09/28 09:42:03;;;;;;;4.53;1.98;;;23.30;55.60;;;;;;4098034;28;20789;-69
2021/09/28 09:44:11;;;;;;;5.55;2.00;;;23.30;55.60;;;;;;4099117;28;20049;-70
2021/09/28 09:46:20;;;;;;;3.83;1.70;;;23.30;55.70;;;;;;4098706;28;20042;-70
2021/09/28 09:48:24;;;;;;;6.63;2.30;;;23.30;55.70;;;;;;4096986;28;21214;-66
2021/09/28 09:50:27;;;;;;;3.60;1.80;;;23.30;55.70;;;;;;4096854;28;20049;-67
2021/09/28 09:52:31;;;;;;;3.47;1.70;;;23.30;55.70;;;;;;4096898;28;20057;-65
2021/09/28 09:54:37;;;;;;;5.72;1.98;;;23.30;55.70;;;;;;4096535;28;22586;-70
2021/09/28 09:56:52;;;;;;;3.63;1.60;;;23.30;55.80;;;;;;4095284;28;20171;-69
2021/09/28 09:58:55;;;;;;;2.38;1.33;;;23.30;55.80;;;;;;4092820;28;20160;-68
2021/09/28 10:00:58;;;;;;;4.13;1.73;;;23.30;55.80;;;;;;4089683;28;20827;-70
2021/09/28 10:03:00;;;;;;;2.92;1.88;;;23.30;55.80;;;;;;4097775;28;20073;-69
2021/09/28 10:05:02;;;;;;;2.85;1.88;;;23.30;55.80;;;;;;4096087;28;20092;-68
2021/09/28 10:07:05;;;;;;;3.78;1.50;;;23.30;56.50;;;;;;4095641;28;20181;-70
2021/09/28 10:09:19;;;;;;;4.25;1.90;;;23.30;55.80;;;;;;4093286;28;20060;-66
2021/09/28 10:11:21;;;;;;;2.97;1.52;;;23.30;55.80;;;;;;4096213;28;21032;-65
2021/09/28 10:13:52;;;;;;;3.83;1.77;;;23.30;55.80;;;;;;4093393;28;21412;-70
2021/09/28 10:16:33;;;;;;;4.60;1.90;;;23.30;55.80;;;;;;4096220;28;20045;-67
2021/09/28 10:18:41;;;;;;;3.35;1.90;;;23.30;55.90;;;;;;4094296;28;20606;-66
2021/09/28 10:20:46;;;;;;;4.53;1.80;;;23.30;55.90;;;;;;4095375;28;20045;-69
2021/09/28 10:22:56;;;;;;;5.50;2.15;;;23.30;55.90;;;;;;4097925;28;20073;-67
2021/09/28 10:25:21;;;;;;;5.70;1.90;;;23.30;55.90;;;;;;4091334;28;20049;-67
2021/09/28 10:27:23;;;;;;;3.42;1.70;;;23.30;55.90;;;;;;4096583;28;20114;-67
2021/09/28 10:29:51;;;;;;;3.20;1.70;;;23.30;56.00;;;;;;4095792;28;20586;-72
2021/09/28 10:31:53;;;;;;;2.83;1.70;;;23.30;55.90;;;;;;4098646;28;20792;-68
2021/09/28 10:33:55;;;;;;;5.72;2.00;;;23.30;55.80;;;;;;4094799;28;20235;-68
2021/09/28 10:36:00;;;;;;;5.13;1.83;;;23.30;55.80;;;;;;4079281;28;20810;-59
2021/09/28 10:38:06;;;;;;;2.63;1.65;;;23.30;55.80;;;;;;4096035;28;20318;-50
2021/09/28 10:40:09;;;;;;;2.90;1.42;;;23.30;56.00;;;;;;4093750;28;20191;-61
2021/09/28 10:42:11;;;;;;;4.32;1.83;;;23.30;55.90;;;;;;4097311;28;20045;-60
2021/09/28 10:44:41;;;;;;;3.50;1.88;;;23.20;55.90;;;;;;4092135;28;21694;-57
2021/09/28 10:46:43;;;;;;;3.65;1.60;;;23.20;55.90;;;;;;4096323;28;20091;-48
2021/09/28 10:48:45;;;;;;;5.18;1.80;;;23.20;55.90;;;;;;4094231;28;20049;-56
2021/09/28 10:51:02;;;;;;;5.70;1.70;;;23.30;56.40;;;;;;4095734;28;20079;-54
2021/09/28 10:53:07;;;;;;;5.35;1.70;;;23.20;55.90;;;;;;4096202;28;20340;-55
2021/09/28 10:55:11;;;;;;;2.78;1.63;;;23.20;56.00;;;;;;4092674;28;20724;-58
2021/09/28 10:57:12;;;;;;;;;;;23.30;56.00;;;;;;4097824;28;20479;-59
2021/09/28 10:59:15;;;;;;;3.95;1.70;;;23.20;56.00;;;;;;4093197;28;20819;-61
2021/09/28 11:02:13;;;;;;;4.05;1.88;;;23.20;55.10;;;;;;4143089;27;20509;-59
2021/09/28 11:04:21;;;;;;;4.18;1.83;;;23.20;55.30;;;;;;4141629;28;20071;-57
2021/09/28 11:06:58;;;;;;;5.78;1.65;;;23.20;55.80;;;;;;4139474;28;20825;-57
2021/09/28 11:09:01;;;;;;;4.47;1.98;;;23.20;55.80;;;;;;4108461;28;20052;-57
2021/09/28 11:11:08;;;;;;;7.53;2.20;;;23.20;55.80;;;;;;4124480;28;21582;-56
2021/09/28 11:13:13;;;;;;;4.88;1.83;;;23.20;55.80;;;;;;4137211;28;20052;-51
2021/09/28 11:15:27;;;;;;;4.15;1.67;;;23.20;55.90;;;;;;4127376;28;20198;-56
2021/09/28 11:17:34;;;;;;;4.18;1.70;;;23.20;56.00;;;;;;4142109;28;20106;-55
2021/09/28 11:19:40;;;;;;;6.05;2.03;;;23.20;56.00;;;;;;4127009;28;20051;-57
2021/09/28 11:21:45;;;;;;;4.97;1.80;;;23.20;55.90;;;;;;4135933;28;21179;-57
2021/09/28 11:23:52;;;;;;;4.97;1.73;;;23.20;56.00;;;;;;4141850;28;20534;-55
2021/09/28 11:25:55;;;;;;;6.50;1.85;;;23.30;56.10;;;;;;4139824;28;22567;-59
2021/09/28 11:28:06;;;;;;;6.25;1.65;;;23.20;56.00;;;;;;4137489;28;20045;-49
2021/09/28 11:30:15;;;;;;;4.22;1.88;;;23.20;56.10;;;;;;4139344;28;20094;-54
2021/09/28 11:32:18;;;;;;;4.53;1.83;;;23.20;56.10;;;;;;4140156;28;20049;-50
2021/09/28 11:34:28;;;;;;;;;;;23.20;56.00;;;;;;4140657;28;20555;-52
2021/09/28 11:36:36;;;;;;;5.07;1.75;;;23.20;56.10;;;;;;4135159;28;21266;-51
2021/09/28 11:38:41;;;;;;;3.67;1.40;;;23.20;56.10;;;;;;4137710;28;20144;-50
2021/09/28 11:40:43;;;;;;;19.30;2.13;;;23.20;56.10;;;;;;4136482;28;20052;-55
2021/09/28 11:42:45;;;;;;;5.35;1.70;;;23.20;56.10;;;;;;4138788;28;20063;-57
2021/09/28 11:44:50;;;;;;;3.03;1.65;;;23.20;56.10;;;;;;4124868;28;20362;-50
2021/09/28 11:46:53;;;;;;;3.90;1.50;;;23.20;56.10;;;;;;4139473;28;20154;-56
2021/09/28 11:48:58;;;;;;;3.95;1.60;;;23.20;56.10;;;;;;4120530;28;20048;-55
2021/09/28 11:51:08;;;;;;;3.83;1.70;;;23.30;56.20;;;;;;4125804;28;20045;-58
2021/09/28 11:53:10;;;;;;;3.30;1.63;;;23.20;56.20;;;;;;4141952;28;20490;-53
2021/09/28 11:55:24;;;;;;;5.53;1.90;;;23.20;56.20;;;;;;4127289;28;20052;-59
2021/09/28 11:57:26;;;;;;;4.30;1.80;;;23.20;56.20;;;;;;4122303;28;20067;-61
2021/09/28 11:59:29;;;;;;;2.63;1.60;;;23.20;56.20;;;;;;4130028;28;20120;-61
2021/09/28 12:01:32;;;;;;;2.50;1.25;;;23.20;56.20;;;;;;4141189;28;20082;-60
2021/09/28 12:03:40;;;;;;;;;;;23.20;56.20;;;;;;4143538;28;20096;-55
2021/09/28 12:05:46;;;;;;;5.95;2.30;;;23.20;56.20;;;;;;4140618;28;20619;-46
2021/09/28 12:09:52;;;;;;;4.00;1.38;;;23.20;56.20;;;;;;4143058;28;20842;-48
2021/09/28 12:12:02;;;;;;;4.10;1.83;;;23.20;56.30;;;;;;4140352;28;20068;-53
2021/09/28 12:14:05;;;;;;;4.80;1.73;;;23.30;56.20;;;;;;4097544;28;20053;-51
2021/09/28 12:16:11;;;;;;;3.60;1.60;;;23.20;56.10;;;;;;4132989;28;20169;-55
2021/09/28 12:18:18;;;;;;;4.63;1.70;;;23.20;56.20;;;;;;4128641;28;20135;-57
2021/09/28 12:20:22;;;;;;;3.10;1.70;;;23.20;56.20;;;;;;4117856;28;20173;-61